sensor_id;sensor_type;location;lat;lon;timestamp;P1;durP1;ratioP1;P2;durP2;ratioP2
37609;SDS011;23457;51.966;8.230;2022-07-30T00:01:12;14.88;;;9.57;;
37609;SDS011;23457;51.966;8.230;2022-07-30T00:03:39;12.65;;;9.27;;
37609;SDS011;23457;51.966;8.230;2022-07-30T00:06:05;19.30;;;12.43;;
37609;SDS011;23457;51.966;8.230;2022-07-30T00:08:32;15.77;;;10.38;;
37609;SDS011;23457;51.966;8.230;2022-07-30T00:10:59;17.45;;;11.57;;
37609;SDS011;23457;51.966;8.230;2022-07-30T00:13:25;16.63;;;10.48;;
37609;SDS011;23457;51.966;8.230;2022-07-30T00:15:52;18.95;;;11.27;;
37609;SDS011;23457;51.966;8.230;2022-07-30T00:18:18;16.10;;;11.23;;
37609;SDS011;23457;51.966;8.230;2022-07-30T00:20:47;12.80;;;10.32;;
37609;SDS011;23457;51.966;8.230;2022-07-30T00:23:14;14.82;;;10.18;;
37609;SDS011;23457;51.966;8.230;2022-07-30T00:25:40;17.17;;;10.20;;
37609;SDS011;23457;51.966;8.230;2022-07-30T00:28:07;11.13;;;9.68;;
37609;SDS011;23457;51.966;8.230;2022-07-30T00:30:33;15.70;;;9.93;;
37609;SDS011;23457;51.966;8.230;2022-07-30T00:33:00;12.90;;;10.35;;
37609;SDS011;23457;51.966;8.230;2022-07-30T00:35:27;16.70;;;10.23;;
37609;SDS011;23457;51.966;8.230;2022-07-30T00:37:54;16.33;;;11.10;;
37609;SDS011;23457;51.966;8.230;2022-07-30T00:40:20;14.30;;;10.50;;
37609;SDS011;23457;51.966;8.230;2022-07-30T00:42:47;19.23;;;13.15;;
37609;SDS011;23457;51.966;8.230;2022-07-30T00:45:14;19.40;;;12.02;;
37609;SDS011;23457;51.966;8.230;2022-07-30T00:47:42;19.73;;;11.65;;
37609;SDS011;23457;51.966;8.230;2022-07-30T00:50:09;16.63;;;10.00;;
37609;SDS011;23457;51.966;8.230;2022-07-30T00:52:37;18.80;;;11.23;;
37609;SDS011;23457;51.966;8.230;2022-07-30T00:55:05;16.27;;;11.13;;
37609;SDS011;23457;51.966;8.230;2022-07-30T00:57:34;14.63;;;10.20;;
37609;SDS011;23457;51.966;8.230;2022-07-30T01:00:01;15.35;;;11.23;;
37609;SDS011;23457;51.966;8.230;2022-07-30T01:02:30;16.17;;;10.85;;
37609;SDS011;23457;51.966;8.230;2022-07-30T01:04:56;16.63;;;12.90;;
37609;SDS011;23457;51.966;8.230;2022-07-30T01:07:23;16.60;;;11.55;;
37609;SDS011;23457;51.966;8.230;2022-07-30T01:09:52;15.43;;;11.35;;
37609;SDS011;23457;51.966;8.230;2022-07-30T01:12:19;12.75;;;10.30;;
37609;SDS011;23457;51.966;8.230;2022-07-30T01:14:48;15.55;;;9.90;;
37609;SDS011;23457;51.966;8.230;2022-07-30T01:17:15;14.63;;;10.32;;
37609;SDS011;23457;51.966;8.230;2022-07-30T01:19:41;14.00;;;9.95;;
37609;SDS011;23457;51.966;8.230;2022-07-30T01:27:52;15.32;;;11.98;;
37609;SDS011;23457;51.966;8.230;2022-07-30T01:30:26;17.23;;;11.00;;
37609;SDS011;23457;51.966;8.230;2022-07-30T01:32:55;16.63;;;12.27;;
37609;SDS011;23457;51.966;8.230;2022-07-30T01:35:24;14.73;;;12.02;;
37609;SDS011;23457;51.966;8.230;2022-07-30T01:37:53;20.60;;;14.57;;
37609;SDS011;23457;51.966;8.230;2022-07-30T01:40:22;19.40;;;13.47;;
37609;SDS011;23457;51.966;8.230;2022-07-30T01:42:51;17.87;;;13.57;;
37609;SDS011;23457;51.966;8.230;2022-07-30T01:45:21;19.85;;;13.85;;
37609;SDS011;23457;51.966;8.230;2022-07-30T01:47:52;18.55;;;13.57;;
37609;SDS011;23457;51.966;8.230;2022-07-30T01:50:20;16.10;;;12.23;;
37609;SDS011;23457;51.966;8.230;2022-07-30T01:52:49;17.35;;;12.00;;
37609;SDS011;23457;51.966;8.230;2022-07-30T01:55:19;18.40;;;12.27;;
37609;SDS011;23457;51.966;8.230;2022-07-30T01:57:51;24.27;;;15.35;;
37609;SDS011;23457;51.966;8.230;2022-07-30T02:00:19;20.87;;;15.67;;
37609;SDS011;23457;51.966;8.230;2022-07-30T02:02:47;24.60;;;15.05;;
37609;SDS011;23457;51.966;8.230;2022-07-30T02:05:14;20.17;;;14.77;;
37609;SDS011;23457;51.966;8.230;2022-07-30T02:07:58;19.25;;;14.63;;
37609;SDS011;23457;51.966;8.230;2022-07-30T02:10:31;18.00;;;12.70;;
37609;SDS011;23457;51.966;8.230;2022-07-30T02:13:02;22.45;;;12.70;;
37609;SDS011;23457;51.966;8.230;2022-07-30T02:15:37;15.98;;;13.95;;
37609;SDS011;23457;51.966;8.230;2022-07-30T02:21:02;15.02;;;13.35;;
37609;SDS011;23457;51.966;8.230;2022-07-30T02:23:37;18.67;;;12.85;;
37609;SDS011;23457;51.966;8.230;2022-07-30T02:26:06;16.38;;;13.65;;
37609;SDS011;23457;51.966;8.230;2022-07-30T02:28:36;17.75;;;14.52;;
37609;SDS011;23457;51.966;8.230;2022-07-30T02:31:06;24.15;;;14.93;;
37609;SDS011;23457;51.966;8.230;2022-07-30T02:33:43;22.67;;;13.95;;
37609;SDS011;23457;51.966;8.230;2022-07-30T02:36:14;24.38;;;13.73;;
37609;SDS011;23457;51.966;8.230;2022-07-30T02:41:11;17.98;;;12.10;;
37609;SDS011;23457;51.966;8.230;2022-07-30T02:43:38;21.25;;;12.98;;
37609;SDS011;23457;51.966;8.230;2022-07-30T02:46:07;15.23;;;12.30;;
37609;SDS011;23457;51.966;8.230;2022-07-30T02:51:05;16.65;;;10.05;;
37609;SDS011;23457;51.966;8.230;2022-07-30T02:53:33;19.53;;;11.60;;
37609;SDS011;23457;51.966;8.230;2022-07-30T02:56:02;15.00;;;10.93;;
37609;SDS011;23457;51.966;8.230;2022-07-30T03:01:00;12.80;;;10.87;;
37609;SDS011;23457;51.966;8.230;2022-07-30T03:03:28;12.90;;;9.82;;
37609;SDS011;23457;51.966;8.230;2022-07-30T03:05:56;12.48;;;9.77;;
37609;SDS011;23457;51.966;8.230;2022-07-30T03:08:25;13.98;;;10.25;;
37609;SDS011;23457;51.966;8.230;2022-07-30T03:10:53;12.73;;;10.35;;
37609;SDS011;23457;51.966;8.230;2022-07-30T03:13:21;16.15;;;10.30;;
37609;SDS011;23457;51.966;8.230;2022-07-30T03:15:49;14.93;;;11.55;;
37609;SDS011;23457;51.966;8.230;2022-07-30T03:18:18;13.60;;;10.98;;
37609;SDS011;23457;51.966;8.230;2022-07-30T03:20:46;15.52;;;11.43;;
37609;SDS011;23457;51.966;8.230;2022-07-30T03:23:15;12.20;;;9.77;;
37609;SDS011;23457;51.966;8.230;2022-07-30T03:25:44;13.75;;;9.82;;
37609;SDS011;23457;51.966;8.230;2022-07-30T03:28:20;13.45;;;10.10;;
37609;SDS011;23457;51.966;8.230;2022-07-30T03:30:49;14.75;;;9.65;;
37609;SDS011;23457;51.966;8.230;2022-07-30T03:33:18;16.58;;;12.45;;
37609;SDS011;23457;51.966;8.230;2022-07-30T03:35:46;12.15;;;10.27;;
37609;SDS011;23457;51.966;8.230;2022-07-30T03:38:14;13.50;;;9.75;;
37609;SDS011;23457;51.966;8.230;2022-07-30T03:40:42;13.32;;;11.18;;
37609;SDS011;23457;51.966;8.230;2022-07-30T03:43:09;14.05;;;11.70;;
37609;SDS011;23457;51.966;8.230;2022-07-30T03:45:58;18.50;;;12.30;;
37609;SDS011;23457;51.966;8.230;2022-07-30T03:48:26;15.23;;;11.93;;
37609;SDS011;23457;51.966;8.230;2022-07-30T03:50:53;16.63;;;12.25;;
37609;SDS011;23457;51.966;8.230;2022-07-30T03:53:20;13.63;;;12.07;;
37609;SDS011;23457;51.966;8.230;2022-07-30T03:55:50;15.57;;;12.48;;
37609;SDS011;23457;51.966;8.230;2022-07-30T03:58:18;17.40;;;12.73;;
37609;SDS011;23457;51.966;8.230;2022-07-30T04:00:48;15.77;;;12.77;;
37609;SDS011;23457;51.966;8.230;2022-07-30T04:03:26;18.75;;;13.38;;
37609;SDS011;23457;51.966;8.230;2022-07-30T04:05:54;13.23;;;11.70;;
37609;SDS011;23457;51.966;8.230;2022-07-30T04:08:20;14.75;;;10.98;;
37609;SDS011;23457;51.966;8.230;2022-07-30T04:10:47;16.02;;;12.77;;
37609;SDS011;23457;51.966;8.230;2022-07-30T04:13:14;19.83;;;13.57;;
37609;SDS011;23457;51.966;8.230;2022-07-30T04:15:46;17.23;;;12.68;;
37609;SDS011;23457;51.966;8.230;2022-07-30T04:18:41;16.77;;;12.75;;
37609;SDS011;23457;51.966;8.230;2022-07-30T04:21:14;16.17;;;13.60;;
37609;SDS011;23457;51.966;8.230;2022-07-30T04:23:44;16.08;;;12.95;;
37609;SDS011;23457;51.966;8.230;2022-07-30T04:26:30;21.85;;;13.65;;
37609;SDS011;23457;51.966;8.230;2022-07-30T04:28:59;16.52;;;12.32;;
37609;SDS011;23457;51.966;8.230;2022-07-30T04:31:26;15.23;;;12.98;;
37609;SDS011;23457;51.966;8.230;2022-07-30T04:33:54;13.02;;;11.52;;
37609;SDS011;23457;51.966;8.230;2022-07-30T04:36:28;15.88;;;11.95;;
37609;SDS011;23457;51.966;8.230;2022-07-30T04:38:56;15.60;;;12.80;;
37609;SDS011;23457;51.966;8.230;2022-07-30T04:41:23;17.98;;;13.88;;
37609;SDS011;23457;51.966;8.230;2022-07-30T04:43:50;18.40;;;13.05;;
37609;SDS011;23457;51.966;8.230;2022-07-30T04:46:17;18.20;;;12.95;;
37609;SDS011;23457;51.966;8.230;2022-07-30T04:48:44;18.40;;;13.05;;
37609;SDS011;23457;51.966;8.230;2022-07-30T04:51:19;14.77;;;13.20;;
37609;SDS011;23457;51.966;8.230;2022-07-30T04:53:49;14.32;;;11.88;;
37609;SDS011;23457;51.966;8.230;2022-07-30T04:56:17;12.93;;;11.35;;
37609;SDS011;23457;51.966;8.230;2022-07-30T04:58:46;13.97;;;11.10;;
37609;SDS011;23457;51.966;8.230;2022-07-30T05:01:56;15.80;;;12.07;;
37609;SDS011;23457;51.966;8.230;2022-07-30T05:04:06;16.92;;;12.05;;
37609;SDS011;23457;51.966;8.230;2022-07-30T05:06:35;13.57;;;12.15;;
37609;SDS011;23457;51.966;8.230;2022-07-30T05:09:03;12.90;;;11.48;;
37609;SDS011;23457;51.966;8.230;2022-07-30T05:11:29;15.70;;;11.88;;
37609;SDS011;23457;51.966;8.230;2022-07-30T05:13:56;16.38;;;11.82;;
37609;SDS011;23457;51.966;8.230;2022-07-30T05:16:23;15.60;;;11.50;;
37609;SDS011;23457;51.966;8.230;2022-07-30T05:18:50;12.73;;;10.30;;
37609;SDS011;23457;51.966;8.230;2022-07-30T05:21:16;14.45;;;11.35;;
37609;SDS011;23457;51.966;8.230;2022-07-30T05:23:43;15.18;;;10.35;;
37609;SDS011;23457;51.966;8.230;2022-07-30T05:26:19;15.95;;;10.63;;
37609;SDS011;23457;51.966;8.230;2022-07-30T05:28:46;15.30;;;11.80;;
37609;SDS011;23457;51.966;8.230;2022-07-30T05:31:20;23.48;;;16.92;;
37609;SDS011;23457;51.966;8.230;2022-07-30T05:33:47;27.23;;;18.77;;
37609;SDS011;23457;51.966;8.230;2022-07-30T05:36:14;25.05;;;17.73;;
37609;SDS011;23457;51.966;8.230;2022-07-30T05:38:40;25.38;;;16.70;;
37609;SDS011;23457;51.966;8.230;2022-07-30T05:41:07;19.27;;;15.18;;
37609;SDS011;23457;51.966;8.230;2022-07-30T05:43:53;19.83;;;16.25;;
37609;SDS011;23457;51.966;8.230;2022-07-30T05:46:21;18.23;;;15.48;;
37609;SDS011;23457;51.966;8.230;2022-07-30T05:48:48;15.43;;;13.63;;
37609;SDS011;23457;51.966;8.230;2022-07-30T05:51:15;22.77;;;17.27;;
37609;SDS011;23457;51.966;8.230;2022-07-30T05:53:42;27.90;;;18.50;;
37609;SDS011;23457;51.966;8.230;2022-07-30T05:56:08;26.70;;;20.02;;
37609;SDS011;23457;51.966;8.230;2022-07-30T05:58:35;35.15;;;21.20;;
37609;SDS011;23457;51.966;8.230;2022-07-30T06:01:01;30.75;;;20.38;;
37609;SDS011;23457;51.966;8.230;2022-07-30T06:03:28;25.92;;;20.67;;
37609;SDS011;23457;51.966;8.230;2022-07-30T06:05:54;47.08;;;23.40;;
37609;SDS011;23457;51.966;8.230;2022-07-30T06:08:21;35.00;;;23.67;;
37609;SDS011;23457;51.966;8.230;2022-07-30T06:10:47;36.33;;;21.35;;
37609;SDS011;23457;51.966;8.230;2022-07-30T06:13:14;20.75;;;17.95;;
37609;SDS011;23457;51.966;8.230;2022-07-30T06:15:40;20.20;;;18.30;;
37609;SDS011;23457;51.966;8.230;2022-07-30T06:18:07;19.60;;;17.60;;
37609;SDS011;23457;51.966;8.230;2022-07-30T06:20:33;23.25;;;20.85;;
37609;SDS011;23457;51.966;8.230;2022-07-30T06:23:00;22.27;;;20.08;;
37609;SDS011;23457;51.966;8.230;2022-07-30T06:25:27;19.65;;;17.65;;
37609;SDS011;23457;51.966;8.230;2022-07-30T06:27:53;19.92;;;17.92;;
37609;SDS011;23457;51.966;8.230;2022-07-30T06:30:20;27.02;;;20.27;;
37609;SDS011;23457;51.966;8.230;2022-07-30T06:32:56;22.35;;;20.05;;
37609;SDS011;23457;51.966;8.230;2022-07-30T06:35:22;27.80;;;21.95;;
37609;SDS011;23457;51.966;8.230;2022-07-30T06:37:49;24.08;;;21.33;;
37609;SDS011;23457;51.966;8.230;2022-07-30T06:40:33;27.05;;;20.92;;
37609;SDS011;23457;51.966;8.230;2022-07-30T06:42:59;26.42;;;23.58;;
37609;SDS011;23457;51.966;8.230;2022-07-30T06:45:26;26.02;;;23.23;;
37609;SDS011;23457;51.966;8.230;2022-07-30T06:47:56;28.42;;;23.00;;
37609;SDS011;23457;51.966;8.230;2022-07-30T06:50:24;28.17;;;23.92;;
37609;SDS011;23457;51.966;8.230;2022-07-30T06:52:51;28.80;;;25.02;;
37609;SDS011;23457;51.966;8.230;2022-07-30T06:55:17;28.45;;;23.98;;
37609;SDS011;23457;51.966;8.230;2022-07-30T06:57:44;28.65;;;25.70;;
37609;SDS011;23457;51.966;8.230;2022-07-30T07:00:11;32.65;;;26.60;;
37609;SDS011;23457;51.966;8.230;2022-07-30T07:02:38;26.17;;;23.40;;
37609;SDS011;23457;51.966;8.230;2022-07-30T07:05:04;29.55;;;26.13;;
37609;SDS011;23457;51.966;8.230;2022-07-30T07:07:35;31.02;;;26.52;;
37609;SDS011;23457;51.966;8.230;2022-07-30T07:10:11;31.67;;;25.63;;
37609;SDS011;23457;51.966;8.230;2022-07-30T07:12:38;28.02;;;24.35;;
37609;SDS011;23457;51.966;8.230;2022-07-30T07:15:04;30.95;;;26.20;;
37609;SDS011;23457;51.966;8.230;2022-07-30T07:17:31;27.38;;;23.58;;
37609;SDS011;23457;51.966;8.230;2022-07-30T07:19:58;29.75;;;25.00;;
37609;SDS011;23457;51.966;8.230;2022-07-30T07:22:28;33.15;;;27.75;;
37609;SDS011;23457;51.966;8.230;2022-07-30T07:24:54;34.45;;;26.33;;
37609;SDS011;23457;51.966;8.230;2022-07-30T07:27:21;32.25;;;25.77;;
37609;SDS011;23457;51.966;8.230;2022-07-30T07:29:47;36.45;;;25.00;;
37609;SDS011;23457;51.966;8.230;2022-07-30T07:32:31;28.77;;;24.23;;
37609;SDS011;23457;51.966;8.230;2022-07-30T07:34:58;32.38;;;25.13;;
37609;SDS011;23457;51.966;8.230;2022-07-30T07:37:25;31.60;;;25.52;;
37609;SDS011;23457;51.966;8.230;2022-07-30T07:39:52;32.97;;;25.08;;
37609;SDS011;23457;51.966;8.230;2022-07-30T07:42:18;27.58;;;23.70;;
37609;SDS011;23457;51.966;8.230;2022-07-30T07:44:45;29.85;;;22.67;;
37609;SDS011;23457;51.966;8.230;2022-07-30T07:47:11;28.20;;;20.95;;
37609;SDS011;23457;51.966;8.230;2022-07-30T07:49:38;28.17;;;22.23;;
37609;SDS011;23457;51.966;8.230;2022-07-30T07:52:04;26.33;;;21.75;;
37609;SDS011;23457;51.966;8.230;2022-07-30T07:54:31;26.23;;;19.98;;
37609;SDS011;23457;51.966;8.230;2022-07-30T07:56:59;20.60;;;18.25;;
37609;SDS011;23457;51.966;8.230;2022-07-30T07:59:29;22.70;;;18.65;;
37609;SDS011;23457;51.966;8.230;2022-07-30T08:02:05;22.77;;;19.35;;
37609;SDS011;23457;51.966;8.230;2022-07-30T08:04:33;25.05;;;18.73;;
37609;SDS011;23457;51.966;8.230;2022-07-30T08:07:00;23.67;;;19.02;;
37609;SDS011;23457;51.966;8.230;2022-07-30T08:09:27;23.55;;;19.35;;
37609;SDS011;23457;51.966;8.230;2022-07-30T08:12:09;22.42;;;17.92;;
37609;SDS011;23457;51.966;8.230;2022-07-30T08:14:36;25.98;;;18.25;;
37609;SDS011;23457;51.966;8.230;2022-07-30T08:17:03;23.92;;;17.02;;
37609;SDS011;23457;51.966;8.230;2022-07-30T08:19:30;24.88;;;19.33;;
37609;SDS011;23457;51.966;8.230;2022-07-30T08:21:56;28.92;;;19.58;;
37609;SDS011;23457;51.966;8.230;2022-07-30T08:24:25;26.77;;;17.63;;
37609;SDS011;23457;51.966;8.230;2022-07-30T08:26:52;22.38;;;19.02;;
37609;SDS011;23457;51.966;8.230;2022-07-30T08:29:18;27.95;;;18.60;;
37609;SDS011;23457;51.966;8.230;2022-07-30T08:31:45;27.42;;;19.63;;
37609;SDS011;23457;51.966;8.230;2022-07-30T08:34:11;26.42;;;18.60;;
37609;SDS011;23457;51.966;8.230;2022-07-30T08:36:39;26.27;;;17.58;;
37609;SDS011;23457;51.966;8.230;2022-07-30T08:39:05;21.85;;;17.20;;
37609;SDS011;23457;51.966;8.230;2022-07-30T08:41:32;23.25;;;17.95;;
37609;SDS011;23457;51.966;8.230;2022-07-30T08:44:04;23.77;;;16.88;;
37609;SDS011;23457;51.966;8.230;2022-07-30T08:46:40;19.23;;;14.30;;
37609;SDS011;23457;51.966;8.230;2022-07-30T08:49:13;17.00;;;13.20;;
37609;SDS011;23457;51.966;8.230;2022-07-30T08:51:41;19.15;;;13.40;;
37609;SDS011;23457;51.966;8.230;2022-07-30T08:54:09;21.52;;;13.23;;
37609;SDS011;23457;51.966;8.230;2022-07-30T08:56:39;21.17;;;12.48;;
37609;SDS011;23457;51.966;8.230;2022-07-30T08:59:07;17.52;;;12.95;;
37609;SDS011;23457;51.966;8.230;2022-07-30T09:01:42;19.67;;;12.57;;
37609;SDS011;23457;51.966;8.230;2022-07-30T09:04:09;17.58;;;12.05;;
37609;SDS011;23457;51.966;8.230;2022-07-30T09:06:35;19.65;;;12.00;;
37609;SDS011;23457;51.966;8.230;2022-07-30T09:09:02;17.70;;;11.07;;
37609;SDS011;23457;51.966;8.230;2022-07-30T09:11:29;16.00;;;11.10;;
37609;SDS011;23457;51.966;8.230;2022-07-30T09:14:06;14.50;;;11.30;;
37609;SDS011;23457;51.966;8.230;2022-07-30T09:16:40;16.60;;;12.70;;
37609;SDS011;23457;51.966;8.230;2022-07-30T09:19:11;16.42;;;11.95;;
37609;SDS011;23457;51.966;8.230;2022-07-30T09:21:53;13.68;;;9.90;;
37609;SDS011;23457;51.966;8.230;2022-07-30T09:24:23;14.73;;;11.15;;
37609;SDS011;23457;51.966;8.230;2022-07-30T09:26:58;21.73;;;9.85;;
37609;SDS011;23457;51.966;8.230;2022-07-30T09:29:32;12.63;;;9.10;;
37609;SDS011;23457;51.966;8.230;2022-07-30T09:32:06;16.00;;;9.55;;
37609;SDS011;23457;51.966;8.230;2022-07-30T09:34:36;16.00;;;8.73;;
37609;SDS011;23457;51.966;8.230;2022-07-30T09:37:04;14.98;;;8.68;;
37609;SDS011;23457;51.966;8.230;2022-07-30T09:39:42;12.13;;;8.95;;
37609;SDS011;23457;51.966;8.230;2022-07-30T09:42:26;15.48;;;8.75;;
37609;SDS011;23457;51.966;8.230;2022-07-30T09:45:06;13.32;;;8.07;;
37609;SDS011;23457;51.966;8.230;2022-07-30T09:47:38;12.07;;;8.00;;
37609;SDS011;23457;51.966;8.230;2022-07-30T09:50:08;18.10;;;8.60;;
37609;SDS011;23457;51.966;8.230;2022-07-30T09:52:37;21.42;;;8.75;;
37609;SDS011;23457;51.966;8.230;2022-07-30T09:55:14;16.15;;;7.20;;
37609;SDS011;23457;51.966;8.230;2022-07-30T09:57:55;15.10;;;8.52;;
37609;SDS011;23457;51.966;8.230;2022-07-30T10:00:24;9.55;;;6.90;;
37609;SDS011;23457;51.966;8.230;2022-07-30T10:02:53;14.73;;;6.50;;
37609;SDS011;23457;51.966;8.230;2022-07-30T10:05:23;10.90;;;7.72;;
37609;SDS011;23457;51.966;8.230;2022-07-30T10:07:52;12.73;;;7.43;;
37609;SDS011;23457;51.966;8.230;2022-07-30T10:10:27;13.57;;;7.25;;
37609;SDS011;23457;51.966;8.230;2022-07-30T10:12:57;12.38;;;6.45;;
37609;SDS011;23457;51.966;8.230;2022-07-30T10:15:30;12.02;;;5.32;;
37609;SDS011;23457;51.966;8.230;2022-07-30T10:18:00;11.77;;;5.57;;
37609;SDS011;23457;51.966;8.230;2022-07-30T10:20:31;10.40;;;5.65;;
37609;SDS011;23457;51.966;8.230;2022-07-30T10:23:00;11.60;;;5.77;;
37609;SDS011;23457;51.966;8.230;2022-07-30T10:25:34;12.20;;;5.80;;
37609;SDS011;23457;51.966;8.230;2022-07-30T10:28:14;9.75;;;5.55;;
37609;SDS011;23457;51.966;8.230;2022-07-30T10:30:42;11.00;;;5.85;;
37609;SDS011;23457;51.966;8.230;2022-07-30T10:33:10;15.98;;;6.72;;
37609;SDS011;23457;51.966;8.230;2022-07-30T10:35:57;12.05;;;5.57;;
37609;SDS011;23457;51.966;8.230;2022-07-30T10:38:26;10.07;;;4.53;;
37609;SDS011;23457;51.966;8.230;2022-07-30T10:49:12;5.95;;;4.35;;
37609;SDS011;23457;51.966;8.230;2022-07-30T10:51:48;7.38;;;4.70;;
37609;SDS011;23457;51.966;8.230;2022-07-30T11:02:29;11.23;;;5.07;;
37609;SDS011;23457;51.966;8.230;2022-07-30T11:07:45;7.13;;;3.92;;
37609;SDS011;23457;51.966;8.230;2022-07-30T11:10:46;10.00;;;3.88;;
37609;SDS011;23457;51.966;8.230;2022-07-30T11:13:09;6.65;;;3.72;;
37609;SDS011;23457;51.966;8.230;2022-07-30T11:15:52;11.38;;;4.35;;
37609;SDS011;23457;51.966;8.230;2022-07-30T11:18:25;5.30;;;3.15;;
37609;SDS011;23457;51.966;8.230;2022-07-30T11:21:13;8.02;;;3.35;;
37609;SDS011;23457;51.966;8.230;2022-07-30T11:23:41;9.77;;;4.00;;
37609;SDS011;23457;51.966;8.230;2022-07-30T11:28:57;5.30;;;3.40;;
37609;SDS011;23457;51.966;8.230;2022-07-30T11:31:26;8.90;;;3.65;;
37609;SDS011;23457;51.966;8.230;2022-07-30T11:42:31;8.23;;;3.10;;
37609;SDS011;23457;51.966;8.230;2022-07-30T11:47:42;7.95;;;3.28;;
37609;SDS011;23457;51.966;8.230;2022-07-30T11:50:17;4.70;;;2.92;;
37609;SDS011;23457;51.966;8.230;2022-07-30T11:52:49;8.13;;;3.55;;
37609;SDS011;23457;51.966;8.230;2022-07-30T11:55:29;7.80;;;2.83;;
37609;SDS011;23457;51.966;8.230;2022-07-30T11:58:27;8.20;;;3.17;;
37609;SDS011;23457;51.966;8.230;2022-07-30T12:00:55;9.68;;;3.05;;
37609;SDS011;23457;51.966;8.230;2022-07-30T12:03:24;5.00;;;2.88;;
37609;SDS011;23457;51.966;8.230;2022-07-30T12:05:55;8.55;;;3.42;;
37609;SDS011;23457;51.966;8.230;2022-07-30T12:08:21;4.45;;;2.65;;
37609;SDS011;23457;51.966;8.230;2022-07-30T12:11:01;7.20;;;3.58;;
37609;SDS011;23457;51.966;8.230;2022-07-30T12:13:28;8.05;;;3.33;;
37609;SDS011;23457;51.966;8.230;2022-07-30T12:16:14;5.93;;;2.80;;
37609;SDS011;23457;51.966;8.230;2022-07-30T12:18:43;9.45;;;2.92;;
37609;SDS011;23457;51.966;8.230;2022-07-30T12:21:10;8.90;;;2.97;;
37609;SDS011;23457;51.966;8.230;2022-07-30T12:23:38;5.63;;;2.85;;
37609;SDS011;23457;51.966;8.230;2022-07-30T12:28:34;7.70;;;3.08;;
37609;SDS011;23457;51.966;8.230;2022-07-30T12:31:01;4.68;;;2.88;;
37609;SDS011;23457;51.966;8.230;2022-07-30T12:33:29;5.73;;;2.73;;
37609;SDS011;23457;51.966;8.230;2022-07-30T12:35:57;6.60;;;2.90;;
37609;SDS011;23457;51.966;8.230;2022-07-30T12:38:26;12.88;;;3.00;;
37609;SDS011;23457;51.966;8.230;2022-07-30T12:46:09;3.78;;;2.47;;
37609;SDS011;23457;51.966;8.230;2022-07-30T12:51:25;6.75;;;2.40;;
37609;SDS011;23457;51.966;8.230;2022-07-30T12:53:55;4.55;;;2.50;;
37609;SDS011;23457;51.966;8.230;2022-07-30T12:56:23;5.57;;;2.45;;
37609;SDS011;23457;51.966;8.230;2022-07-30T12:58:52;4.13;;;2.35;;
37609;SDS011;23457;51.966;8.230;2022-07-30T13:01:42;7.07;;;2.93;;
37609;SDS011;23457;51.966;8.230;2022-07-30T13:04:08;7.32;;;2.58;;
37609;SDS011;23457;51.966;8.230;2022-07-30T13:06:35;5.32;;;2.42;;
37609;SDS011;23457;51.966;8.230;2022-07-30T13:09:03;5.47;;;2.50;;
37609;SDS011;23457;51.966;8.230;2022-07-30T13:11:38;8.65;;;2.65;;
37609;SDS011;23457;51.966;8.230;2022-07-30T13:14:07;3.08;;;2.28;;
37609;SDS011;23457;51.966;8.230;2022-07-30T13:16:34;7.20;;;2.55;;
37609;SDS011;23457;51.966;8.230;2022-07-30T13:19:02;7.95;;;2.40;;
37609;SDS011;23457;51.966;8.230;2022-07-30T13:21:34;6.65;;;2.70;;
37609;SDS011;23457;51.966;8.230;2022-07-30T13:24:00;7.38;;;2.42;;
37609;SDS011;23457;51.966;8.230;2022-07-30T13:26:27;7.70;;;2.50;;
37609;SDS011;23457;51.966;8.230;2022-07-30T13:28:55;4.07;;;2.03;;
37609;SDS011;23457;51.966;8.230;2022-07-30T13:31:27;5.10;;;2.47;;
37609;SDS011;23457;51.966;8.230;2022-07-30T13:34:08;3.08;;;2.25;;
37609;SDS011;23457;51.966;8.230;2022-07-30T13:39:04;4.10;;;2.60;;
37609;SDS011;23457;51.966;8.230;2022-07-30T13:41:30;10.23;;;2.80;;
37609;SDS011;23457;51.966;8.230;2022-07-30T13:43:58;9.50;;;2.55;;
37609;SDS011;23457;51.966;8.230;2022-07-30T13:46:26;5.00;;;2.38;;
37609;SDS011;23457;51.966;8.230;2022-07-30T13:48:54;9.30;;;2.80;;
37609;SDS011;23457;51.966;8.230;2022-07-30T13:51:21;8.98;;;2.47;;
37609;SDS011;23457;51.966;8.230;2022-07-30T13:53:48;5.85;;;2.38;;
37609;SDS011;23457;51.966;8.230;2022-07-30T13:56:15;4.90;;;2.58;;
37609;SDS011;23457;51.966;8.230;2022-07-30T13:58:45;4.00;;;2.20;;
37609;SDS011;23457;51.966;8.230;2022-07-30T14:01:11;4.40;;;2.08;;
37609;SDS011;23457;51.966;8.230;2022-07-30T14:03:43;3.38;;;2.35;;
37609;SDS011;23457;51.966;8.230;2022-07-30T14:06:15;8.68;;;2.13;;
37609;SDS011;23457;51.966;8.230;2022-07-30T14:08:42;6.93;;;2.40;;
37609;SDS011;23457;51.966;8.230;2022-07-30T14:11:11;4.72;;;2.40;;
37609;SDS011;23457;51.966;8.230;2022-07-30T14:13:39;5.90;;;2.13;;
37609;SDS011;23457;51.966;8.230;2022-07-30T14:16:15;4.40;;;2.20;;
37609;SDS011;23457;51.966;8.230;2022-07-30T14:19:03;9.77;;;1.98;;
37609;SDS011;23457;51.966;8.230;2022-07-30T14:21:31;5.18;;;2.20;;
37609;SDS011;23457;51.966;8.230;2022-07-30T14:24:00;10.65;;;2.50;;
37609;SDS011;23457;51.966;8.230;2022-07-30T14:26:34;4.05;;;2.13;;
37609;SDS011;23457;51.966;8.230;2022-07-30T14:29:03;4.10;;;2.25;;
37609;SDS011;23457;51.966;8.230;2022-07-30T14:31:32;5.43;;;1.88;;
37609;SDS011;23457;51.966;8.230;2022-07-30T14:34:00;2.88;;;2.25;;
37609;SDS011;23457;51.966;8.230;2022-07-30T14:36:27;4.47;;;2.33;;
37609;SDS011;23457;51.966;8.230;2022-07-30T14:38:55;9.40;;;2.20;;
37609;SDS011;23457;51.966;8.230;2022-07-30T14:41:23;6.72;;;2.45;;
37609;SDS011;23457;51.966;8.230;2022-07-30T14:43:51;8.77;;;2.55;;
37609;SDS011;23457;51.966;8.230;2022-07-30T14:46:18;4.50;;;2.10;;
37609;SDS011;23457;51.966;8.230;2022-07-30T14:48:46;7.78;;;2.28;;
37609;SDS011;23457;51.966;8.230;2022-07-30T14:51:13;3.85;;;1.85;;
37609;SDS011;23457;51.966;8.230;2022-07-30T14:53:50;3.40;;;2.10;;
37609;SDS011;23457;51.966;8.230;2022-07-30T14:56:17;5.50;;;1.98;;
37609;SDS011;23457;51.966;8.230;2022-07-30T14:58:44;9.43;;;2.20;;
37609;SDS011;23457;51.966;8.230;2022-07-30T15:01:11;6.72;;;2.20;;
37609;SDS011;23457;51.966;8.230;2022-07-30T15:03:42;7.57;;;2.22;;
37609;SDS011;23457;51.966;8.230;2022-07-30T15:06:09;5.40;;;2.10;;
37609;SDS011;23457;51.966;8.230;2022-07-30T15:08:37;7.78;;;2.55;;
37609;SDS011;23457;51.966;8.230;2022-07-30T15:11:04;5.55;;;1.92;;
37609;SDS011;23457;51.966;8.230;2022-07-30T15:13:33;5.30;;;2.45;;
37609;SDS011;23457;51.966;8.230;2022-07-30T15:16:01;6.00;;;2.25;;
37609;SDS011;23457;51.966;8.230;2022-07-30T15:18:28;5.75;;;2.10;;
37609;SDS011;23457;51.966;8.230;2022-07-30T15:20:54;5.82;;;2.35;;
37609;SDS011;23457;51.966;8.230;2022-07-30T15:23:21;6.72;;;1.88;;
37609;SDS011;23457;51.966;8.230;2022-07-30T15:25:48;5.28;;;1.77;;
37609;SDS011;23457;51.966;8.230;2022-07-30T15:28:14;3.83;;;2.13;;
37609;SDS011;23457;51.966;8.230;2022-07-30T15:30:41;3.75;;;2.08;;
37609;SDS011;23457;51.966;8.230;2022-07-30T15:33:08;6.13;;;2.25;;
37609;SDS011;23457;51.966;8.230;2022-07-30T15:35:35;6.28;;;2.38;;
37609;SDS011;23457;51.966;8.230;2022-07-30T15:38:01;8.13;;;1.92;;
37609;SDS011;23457;51.966;8.230;2022-07-30T15:40:28;5.72;;;2.30;;
37609;SDS011;23457;51.966;8.230;2022-07-30T15:42:55;3.20;;;2.05;;
37609;SDS011;23457;51.966;8.230;2022-07-30T15:45:22;5.60;;;2.13;;
37609;SDS011;23457;51.966;8.230;2022-07-30T15:47:49;6.38;;;1.95;;